Flight Track Log - Related Links

Times and Time Zones

All times are in EDT time to prevent confusion due to time zone crossing. See the SWA378 flight status page for this flight to view local times or setup timezone preferences in your user account.

Time Position Orientation Groundspeed Altitude Reporting Facility
EDT Latitude Longitude Course Direction KTS MPH feet Rate Location/Type
Wed 01:20:04 PM 33.9044 -118.5325 233° Southwest 233 268 3,400  Level Los Angeles Center
Wed 01:21:06 PM 33.8306 -118.5442 187° South 279 321 5,700 2,323 Climbing Los Angeles Center
Wed 01:22:08 PM 33.7519 -118.5311 172° South 288 331 8,200 2,274 Climbing Los Angeles Center
Wed 01:23:10 PM 33.6947 -118.4681 137° Southeast 308 354 10,400 2,496 Climbing Los Angeles Center
Wed 01:24:00 PM 33.6333 -118.2261 90° East  Level FlightAware Approximate
Wed 01:24:13 PM 33.6475 -118.3525 116° Southeast 328 377 13,400  Level Los Angeles Center
Wed 01:25:15 PM 33.6439 -118.2364 92° East 356 410 15,100 2,032 Climbing Los Angeles Center
Wed 01:26:17 PM 33.6442 -118.1072 90° East 386 444 17,600 2,323 Climbing Los Angeles Center
Wed 01:27:19 PM 33.6442 -117.9708 90° East 405 466 19,900 2,226 Climbing Los Angeles Center
Wed 01:28:21 PM 33.6442 -117.8292 90° East 420 483 22,200 2,419 Climbing Los Angeles Center
Wed 01:29:23 PM 33.6444 -117.6536 90° East 433 498 24,900 2,129 Climbing Los Angeles Center
Wed 01:30:25 PM 33.6431 -117.5042 91° East 442 509 26,600 1,548 Climbing Los Angeles Center
Wed 01:31:27 PM 33.6408 -117.3489 91° East 459 528 28,100 1,452 Climbing Los Angeles Center
Wed 01:32:29 PM 33.6400 -117.1894 90° East 473 544 29,600 1,440 Climbing Los Angeles Center
Wed 01:33:32 PM 33.6389 -117.0264 90° East 483 556 31,100 1,728 Climbing Los Angeles Center
Wed 01:34:34 PM 33.6589 -116.8461 82° East 481 554 33,200 1,694 Climbing Los Angeles Center
Wed 01:35:36 PM 33.6878 -116.6903 77° East 477 549 34,600 1,258 Climbing Los Angeles Center
Wed 01:36:38 PM 33.7147 -116.5336 78° East 478 550 35,800 1,104 Climbing Los Angeles Center
Wed 01:37:41 PM 33.7425 -116.3797 78° East 472 543 36,900 581 Climbing Los Angeles Center
Wed 01:38:42 PM 33.7700 -116.2236 78° East 475 547 37,000 49 Climbing Los Angeles Center
Wed 01:39:44 PM 33.7964 -116.0661 79° East 480 552 37,000  Level Los Angeles Center
Wed 01:40:46 PM 33.8292 -115.8808 78° East 474 545 37,000  Level Los Angeles Center
Wed 01:41:48 PM 33.8558 -115.7269 78° East 472 543 37,000  Level Los Angeles Center
Wed 01:42:51 PM 33.8814 -115.5714 79° East 474 545 37,000  Level Los Angeles Center
Wed 01:43:53 PM 33.9069 -115.4169 79° East 471 542 37,000  Level Los Angeles Center
Wed 01:44:55 PM 33.9333 -115.2633 78° East 470 541 37,000  Level Los Angeles Center
Wed 01:45:57 PM 33.9597 -115.1094 78° East 468 539 37,000  Level Los Angeles Center
Wed 01:46:59 PM 33.9897 -114.9239 79° East 470 541 37,000  Level Los Angeles Center
Wed 01:48:01 PM 34.0169 -114.7689 78° East 473 544 37,000  Level Los Angeles Center
Wed 01:49:03 PM 34.0417 -114.6139 79° East 471 542 37,000  Level Los Angeles Center
Wed 01:50:05 PM 34.0656 -114.4594 79° East 469 540 37,000  Level Los Angeles Center
Wed 01:51:07 PM 34.0917 -114.3064 78° East 466 536 37,000  Level Los Angeles Center
Wed 01:52:10 PM 34.1186 -114.1386 79° East 470 541 37,000  Level Los Angeles Center
Wed 01:53:12 PM 34.1411 -113.9961 79° East 471 542 37,000  Level Los Angeles Center
Wed 01:54:14 PM 34.1681 -113.8081 80° East 472 543 37,000  Level Los Angeles Center
Wed 01:55:23 PM 34.1975 -113.6331 78° East 469 540 37,000  Level Albuquerque Center
Wed 01:56:25 PM 34.2219 -113.4697 80° East 473 544 37,000  Level Albuquerque Center
Wed 01:57:27 PM 34.2456 -113.3139 80° East 472 543 37,000  Level Albuquerque Center
Wed 01:58:29 PM 34.2678 -113.1581 80° East 472 543 37,000  Level Albuquerque Center
Wed 01:59:31 PM 34.2914 -113.0033 79° East 471 542 37,000  Level Albuquerque Center
Wed 02:00:33 PM 34.3142 -112.8481 80° East 468 539 37,000  Level Albuquerque Center
Wed 02:01:35 PM 34.3372 -112.6919 80° East 470 541 37,000  Level Albuquerque Center
Wed 02:02:37 PM 34.3656 -112.5031 80° East 474 545 37,000  Level Albuquerque Center
Wed 02:03:38 PM 34.3881 -112.3447 80° East 476 548 37,000  Level Albuquerque Center
Wed 02:04:40 PM 34.4092 -112.1861 81° East 476 548 37,000  Level Albuquerque Center
Wed 02:05:42 PM 34.4311 -112.0281 80° East 474 545 37,000  Level Albuquerque Center
Wed 02:06:44 PM 34.4536 -111.8700 80° East 474 545 37,000  Level Albuquerque Center
Wed 02:07:46 PM 34.4761 -111.7125 80° East 472 543 37,000  Level Albuquerque Center
Wed 02:08:48 PM 34.4972 -111.5547 81° East 472 543 37,000  Level Albuquerque Center
Wed 02:09:50 PM 34.5178 -111.3956 81° East 475 547 37,000  Level Albuquerque Center
Wed 02:10:52 PM 34.5433 -111.2075 81° East 472 543 37,000  Level Albuquerque Center
Wed 02:11:53 PM 34.5625 -111.0492 82° East 473 544 37,000  Level Albuquerque Center
Wed 02:12:55 PM 34.5806 -110.8911 82° East 473 544 37,000  Level Albuquerque Center
Wed 02:13:57 PM 34.6006 -110.7167 82° East 469 540 37,000  Level Albuquerque Center
Wed 02:14:59 PM 34.6189 -110.5686 81° East 466 536 37,000  Level Albuquerque Center
Wed 02:16:00 PM 34.6342 -110.4178 83° East 468 539 37,000  Level Albuquerque Center
Wed 02:17:02 PM 34.6547 -110.2450 82° East 466 536 37,000  Level Albuquerque Center
Wed 02:18:04 PM 34.6703 -110.0978 83° East 462 532 37,000  Level Albuquerque Center
Wed 02:19:06 PM 34.6878 -109.9233 83° East 466 536 37,000  Level Albuquerque Center
Wed 02:20:07 PM 34.7036 -109.7747 83° East 465 535 37,000  Level Albuquerque Center
Wed 02:21:09 PM 34.7211 -109.6006 83° East 466 536 37,000  Level Albuquerque Center
Wed 02:22:11 PM 34.7372 -109.4519 82° East 465 535 37,000  Level Albuquerque Center
Wed 02:23:12 PM 34.7542 -109.2797 83° East 462 532 37,000  Level Albuquerque Center
Wed 02:24:14 PM 34.7683 -109.1311 83° East 463 533 37,000  Level Albuquerque Center
Wed 02:25:15 PM 34.7836 -108.9847 83° East 459 528 37,000  Level Albuquerque Center
Wed 02:26:17 PM 34.8008 -108.8142 83° East 457 526 37,000  Level Albuquerque Center
Wed 02:27:18 PM 34.8144 -108.6672 84° East 458 527 37,000  Level Albuquerque Center
Wed 02:28:20 PM 34.8311 -108.4978 83° East 455 524 37,000  Level Albuquerque Center
Wed 02:29:22 PM 34.8442 -108.3500 84° East 457 526 37,000  Level Albuquerque Center
Wed 02:30:23 PM 34.8611 -108.1794 83° East 457 526 37,000  Level Albuquerque Center
Wed 02:31:25 PM 34.8744 -108.0339 84° East 455 524 37,000  Level Albuquerque Center
Wed 02:32:26 PM 34.8897 -107.8642 84° East 453 521 37,000  Level Albuquerque Center
Wed 02:33:28 PM 34.9003 -107.7361 84° East 449 517 37,000  Level Albuquerque Center
Wed 02:34:30 PM 34.9128 -107.5847 84° East 450 518 37,000  Level Albuquerque Center
Wed 02:35:31 PM 34.9258 -107.4347 84° East 448 516 37,000  Level Albuquerque Center
Wed 02:37:00 PM 34.9369 -107.2084 84° East  Level FlightAware Approximate
Wed 02:37:34 PM 34.9556 -107.0950 84° East 449 517 37,000  Level Albuquerque Center
Wed 02:38:36 PM 34.9667 -106.9503 85° East 449 517 37,000  Level Albuquerque Center
Wed 02:39:38 PM 34.9792 -106.7836 85° East 444 511 37,000  Level Albuquerque Center
Wed 02:40:39 PM 34.9894 -106.6394 85° East 444 511 37,000  Level Albuquerque Center
Wed 02:41:41 PM 35.0017 -106.4800 85° East 453 521 37,000  Level Albuquerque Center
Wed 02:42:42 PM 35.0125 -106.3322 85° East 444 511 37,000  Level Albuquerque Center
Wed 02:43:44 PM 35.0244 -106.1911 84° East 425 489 37,000  Level Albuquerque Center
Wed 02:44:46 PM 35.0336 -106.0469 86° East 426 490 37,000  Level Albuquerque Center
Wed 02:45:47 PM 35.0475 -105.8819 84° East 422 486 37,000  Level Albuquerque Center
Wed 02:46:49 PM 35.0719 -105.7406 78° East 422 486 37,000  Level Albuquerque Center
Wed 02:47:51 PM 35.0950 -105.6000 79° East 419 482 37,000  Level Albuquerque Center
Wed 02:48:52 PM 35.1192 -105.4586 78° East 420 483 37,000  Level Albuquerque Center
Wed 02:49:54 PM 35.1397 -105.3153 80° East 425 489 37,000  Level Albuquerque Center
Wed 02:50:56 PM 35.1489 -105.1681 86° East 428 493 37,000 146 Level Albuquerque Center
Wed 02:51:57 PM 35.1567 -105.0194 86° East 433 498 37,300 732 Climbing Albuquerque Center
Wed 02:52:59 PM 35.1642 -104.8714 86° East 434 499 38,500 823 Climbing Albuquerque Center
Wed 02:54:01 PM 35.1731 -104.7247 86° East 430 495 39,000 244 Climbing Albuquerque Center
Wed 02:55:02 PM 35.1831 -104.5578 86° East 441 507 39,000  Level Albuquerque Center
Wed 02:56:04 PM 35.1925 -104.4064 86° East 447 514 39,000  Level Albuquerque Center
Wed 02:57:06 PM 35.1989 -104.2536 87° East 449 517 39,000  Level Albuquerque Center
Wed 02:58:07 PM 35.2061 -104.1014 87° East 450 518 39,000  Level Albuquerque Center
Wed 02:59:09 PM 35.2158 -103.9492 85° East 450 518 39,000  Level Albuquerque Center
Wed 03:00:11 PM 35.2219 -103.7903 87° East 450 518 39,000  Level Albuquerque Center
Wed 03:01:12 PM 35.2306 -103.6133 87° East 445 512 39,000  Level Albuquerque Center
Wed 03:02:14 PM 35.2375 -103.4617 87° East 444 511 39,000  Level Albuquerque Center
Wed 03:03:16 PM 35.2444 -103.3114 87° East 441 507 39,000  Level Albuquerque Center
Wed 03:04:17 PM 35.2508 -103.1594 87° East 443 510 39,000  Level Albuquerque Center
Wed 03:05:19 PM 35.2567 -103.0075 87° East 444 511 39,000  Level Albuquerque Center
Wed 03:06:21 PM 35.2628 -102.8650 87° East 446 513 39,000  Level Albuquerque Center
Wed 03:07:22 PM 35.2678 -102.7108 88° East 451 519 39,000  Level Albuquerque Center
Wed 03:08:24 PM 35.2756 -102.5281 87° East 450 518 39,000  Level Albuquerque Center
Wed 03:09:26 PM 35.2808 -102.3742 88° East 453 521 39,000  Level Albuquerque Center
Wed 03:10:29 PM 35.2861 -102.2200 88° East 454 522 39,000  Level Albuquerque Center
Wed 03:11:29 PM 35.2917 -102.0650 87° East 456 525 39,000  Level Albuquerque Center
Wed 03:12:31 PM 35.2981 -101.8950 87° East 459 528 39,000  Level Albuquerque Center
Wed 03:13:33 PM 35.3044 -101.7378 87° East 459 528 39,000  Level Albuquerque Center
Wed 03:14:34 PM 35.3089 -101.5756 88° East 457 526 39,000  Level Albuquerque Center
Wed 03:15:36 PM 35.3136 -101.4192 88° East 458 527 39,000  Level Albuquerque Center
Wed 03:16:38 PM 35.3158 -101.2739 89° East 459 528 39,000  Level Albuquerque Center
Wed 03:17:40 PM 35.3192 -101.1186 88° East 458 527 39,000  Level Albuquerque Center
Wed 03:18:41 PM 35.3244 -100.9308 88° East 460 529 39,000  Level Albuquerque Center
Wed 03:19:43 PM 35.3286 -100.7731 88° East 463 533 39,000  Level Albuquerque Center
Wed 03:20:45 PM 35.3319 -100.6336 88° East 465 535 39,000  Level Albuquerque Center
Wed 03:21:47 PM 35.3356 -100.4433 89° East 465 535 39,000  Level Albuquerque Center
Wed 03:22:49 PM 35.3378 -100.2861 89° East 464 534 39,000  Level Albuquerque Center
Wed 03:23:50 PM 35.3411 -100.1283 88° East 463 533 39,000  Level Albuquerque Center
Wed 03:24:52 PM 35.3433 -99.9717 89° East 462 532 39,000  Level Albuquerque Center
Wed 03:25:54 PM 35.3458 -99.8161 89° East 459 528 39,000  Level Albuquerque Center
Wed 03:26:56 PM 35.3478 -99.6603 89° East 459 528 39,000  Level Albuquerque Center
Wed 03:27:58 PM 35.3494 -99.5053 89° East 458 527 39,000  Level Albuquerque Center
Wed 03:29:00 PM 35.3531 -99.3206 89° East 455 524 39,000  Level Albuquerque Center
Wed 03:29:22 PM 35.3508 -99.2614 93° East 456 525 39,000  Level Fort Worth Center
Wed 03:30:22 PM 35.3531 -99.1061 89° East 462 532 39,000  Level Fort Worth Center
Wed 03:31:22 PM 35.3550 -98.9458 89° East 456 525 39,000  Level Fort Worth Center
Wed 03:32:22 PM 35.3569 -98.7906 89° East 456 525 39,000  Level Fort Worth Center
Wed 03:33:22 PM 35.3586 -98.6328 89° East 456 525 39,000  Level Fort Worth Center
Wed 03:34:22 PM 35.3578 -98.4828 90° East 456 525 39,000  Level Fort Worth Center
Wed 03:35:22 PM 35.3592 -98.3247 89° East 451 519 39,000  Level Fort Worth Center
Wed 03:36:22 PM 35.3600 -98.1694 90° East 451 519 39,000  Level Fort Worth Center
Wed 03:37:22 PM 35.3589 -98.0092 90° East 456 525 39,000  Level Fort Worth Center
Wed 03:38:22 PM 35.3575 -97.8539 91° East 456 525 39,000  Level Fort Worth Center
Wed 03:39:22 PM 35.3581 -97.6911 90° East 456 525 39,000  Level Fort Worth Center
Wed 03:40:22 PM 35.3561 -97.5408 91° East 456 525 39,000  Level Fort Worth Center
Wed 03:41:22 PM 35.3667 -97.3753 85° East 462 532 39,000  Level Fort Worth Center
Wed 03:42:22 PM 35.3686 -97.2175 89° East 457 526 39,000  Level Fort Worth Center
Wed 03:43:22 PM 35.3661 -97.0750 91° East 457 526 39,000  Level Fort Worth Center
Wed 03:44:22 PM 35.3697 -96.9222 88° East 457 526 39,000  Level Fort Worth Center
Wed 03:45:22 PM 35.3733 -96.7644 88° East 457 526 39,000  Level Fort Worth Center
Wed 03:46:22 PM 35.3744 -96.6014 89° East 457 526 39,000  Level Fort Worth Center
Wed 03:47:22 PM 35.3753 -96.4461 90° East 457 526 39,000  Level Fort Worth Center
Wed 03:48:22 PM 35.3783 -96.2856 89° East 457 526 39,000  Level Fort Worth Center
Wed 03:49:22 PM 35.3808 -96.1278 89° East 457 526 39,000  Level Fort Worth Center
Wed 03:50:22 PM 35.3811 -95.9675 90° East 457 526 39,000  Level Fort Worth Center
Wed 03:51:22 PM 35.3875 -95.7967 87° East 457 526 39,000  Level Fort Worth Center
Wed 03:52:22 PM 35.3875 -95.6336 90° East 457 526 39,000  Level Fort Worth Center
Wed 03:53:22 PM 35.3892 -95.4758 89° East 462 532 39,000  Level Fort Worth Center
Wed 03:54:44 PM 35.3889 -95.2544 90° East 455 524 39,000  Level Memphis Center
Wed 03:55:44 PM 35.3889 -95.0942 90° East 461 531 39,000  Level Memphis Center
Wed 03:56:44 PM 35.3886 -94.9336 90° East 467 537 39,000  Level Memphis Center
Wed 03:57:44 PM 35.3883 -94.7681 90° East 474 545 39,000  Level Memphis Center
Wed 03:58:44 PM 35.3878 -94.6050 90° East 480 552 39,000  Level Memphis Center
Wed 03:59:44 PM 35.3847 -94.4419 91° East 480 552 39,000  Level Memphis Center
Wed 04:00:44 PM 35.3875 -94.2917 89° East 480 552 39,000  Level Memphis Center
Wed 04:01:44 PM 35.3781 -94.1283 94° East 480 552 39,000  Level Memphis Center
Wed 04:02:44 PM 35.3642 -93.9622 96° East 480 552 39,000  Level Memphis Center
Wed 04:03:44 PM 35.3522 -93.7964 95° East 480 552 39,000  Level Memphis Center
Wed 04:04:44 PM 35.3419 -93.6331 94° East 485 558 39,000  Level Memphis Center
Wed 04:05:44 PM 35.3297 -93.4619 95° East 490 564 39,000  Level Memphis Center
Wed 04:06:44 PM 35.3192 -93.2986 94° East 490 564 39,000  Level Memphis Center
Wed 04:07:44 PM 35.3042 -93.1303 96° East 484 557 39,000  Level Memphis Center
Wed 04:08:44 PM 35.2911 -92.9644 95° East 484 557 39,000  Level Memphis Center
Wed 04:09:44 PM 35.2775 -92.8039 96° East 484 557 39,000  Level Memphis Center
Wed 04:10:44 PM 35.2622 -92.6178 96° East 490 564 39,000  Level Memphis Center
Wed 04:11:44 PM 35.2486 -92.4494 96° East 490 564 39,000  Level Memphis Center
Wed 04:12:44 PM 35.2325 -92.2839 97° East 490 564 39,000  Level Memphis Center
Wed 04:13:44 PM 35.2203 -92.1186 95° East 490 564 39,000  Level Memphis Center
Wed 04:14:44 PM 35.2036 -91.9531 97° East 490 564 39,000  Level Memphis Center
Wed 04:15:44 PM 35.1892 -91.7875 96° East 490 564 39,000  Level Memphis Center
Wed 04:16:44 PM 35.1742 -91.6169 96° East 490 564 39,000  Level Memphis Center
Wed 04:17:44 PM 35.1611 -91.4492 95° East 490 564 39,000  Level Memphis Center
Wed 04:18:44 PM 35.1458 -91.2864 97° East 490 564 39,000  Level Memphis Center
Wed 04:19:44 PM 35.1303 -91.1189 96° East 490 564 39,000  Level Memphis Center
Wed 04:20:44 PM 35.1144 -90.9461 96° East 496 571 39,000  Level Memphis Center
Wed 04:21:44 PM 35.0983 -90.7808 97° East 496 571 39,000  Level Memphis Center
Wed 04:22:44 PM 35.0842 -90.6311 97° East 503 579 39,000  Level Memphis Center
Wed 04:23:44 PM 35.0658 -90.4611 97° East 503 579 39,000  Level Memphis Center
Wed 04:24:44 PM 35.0492 -90.2936 97° East 503 579 39,000  Level Memphis Center
Wed 04:25:44 PM 35.0322 -90.1236 97° East 503 579 39,000  Level Memphis Center
Wed 04:26:44 PM 35.0150 -89.9564 97° East 503 579 39,000  Level Memphis Center
Wed 04:27:44 PM 34.9914 -89.7689 99° East 503 579 39,000  Level Memphis Center
Wed 04:28:44 PM 34.9633 -89.5919 101° East 520 598 39,000  Level Memphis Center
Wed 04:29:44 PM 34.9350 -89.4225 101° East 515 593 39,000 -300 Level Memphis Center
Wed 04:30:44 PM 34.9086 -89.2556 101° East 505 581 38,400 -700 Descending Memphis Center
Wed 04:31:44 PM 34.8842 -89.1064 101° East 505 581 37,600 -700 Descending Memphis Center
Wed 04:32:44 PM 34.8594 -88.9372 100° East 505 581 37,000 -300 Descending Memphis Center
Wed 04:33:44 PM 34.8322 -88.7708 101° East 500 575 37,000  Level Memphis Center
Wed 04:34:44 PM 34.8072 -88.6069 100° East 500 575 37,000 -500 Level Memphis Center
Wed 04:35:44 PM 34.7819 -88.4506 101° East 485 558 36,000 -950 Descending Memphis Center
Wed 04:36:44 PM 34.7583 -88.2894 100° East 479 551 35,100 -950 Descending Memphis Center
Wed 04:37:44 PM 34.7261 -88.1031 102° East 502 578 34,100 -1,000 Descending Memphis Center
Wed 04:38:44 PM 34.7000 -87.9347 101° East 507 583 33,100 -550 Descending Memphis Center
Wed 04:39:44 PM 34.6736 -87.7711 101° East 500 575 33,000 -50 Descending Memphis Center
Wed 04:40:44 PM 34.6472 -87.6081 101° East 500 575 33,000 -769 Level Memphis Center
Wed 04:42:20 PM 34.6056 -87.3472 101° East 493 567 31,000 -1,500 Descending Atlanta Center
Wed 04:43:20 PM 34.5719 -87.1894 104° East 487 560 29,100 -1,000 Descending Atlanta Center
Wed 04:44:20 PM 34.5425 -87.0322 103° East 482 555 29,000 -50 Descending Atlanta Center
Wed 04:45:20 PM 34.5128 -86.8822 103° East 471 542 29,000  Level Atlanta Center
Wed 04:46:20 PM 34.4850 -86.7303 102° East 465 535 29,000 -50 Level Atlanta Center
Wed 04:47:19 PM 34.4547 -86.5756 103° East 465 535 28,900 -550 Descending Atlanta Center
Wed 04:48:20 PM 34.4244 -86.4236 104° East 465 535 27,900 -1,041 Descending Atlanta Center
Wed 04:49:20 PM 34.3961 -86.2717 103° East 465 535 26,800 -1,050 Descending Atlanta Center
Wed 04:50:20 PM 34.3672 -86.1250 103° East 454 522 25,800 -1,000 Descending Atlanta Center
Wed 04:51:20 PM 34.3383 -85.9808 104° East 454 522 24,800 -1,000 Descending Atlanta Center
Wed 04:52:20 PM 34.3092 -85.8319 103° East 454 522 23,800 -1,050 Descending Atlanta Center
Wed 04:53:20 PM 34.2819 -85.6981 104° East 429 494 22,700 -950 Descending Atlanta Center
Wed 04:54:20 PM 34.2564 -85.5744 104° East 423 487 21,900 -900 Descending Atlanta Center
Wed 04:55:20 PM 34.2289 -85.4358 103° East 416 479 20,900 -1,450 Descending Atlanta Center
Wed 04:56:20 PM 34.2031 -85.3072 104° East 410 472 19,000 -1,850 Descending Atlanta Center
Wed 04:57:20 PM 34.1750 -85.1814 105° East 391 450 17,200 -2,000 Descending Atlanta Center
Wed 04:58:20 PM 34.1239 -85.0725 120° Southeast 385 443 15,000 -1,600 Descending Atlanta Center
Wed 04:59:20 PM 34.0578 -84.9842 132° Southeast 368 423 14,000 -850 Descending Atlanta Center
Wed 05:00:20 PM 33.9875 -84.8956 134° Southeast 356 410 13,300 -1,000 Descending Atlanta Center
Wed 05:01:20 PM 33.9131 -84.8022 134° Southeast 356 410 12,000 -645 Descending Atlanta Center
Wed 05:02:21 PM 33.8500 -84.7167 132° Southeast 340 391 12,000 -67 Level Atlanta TRACON
Wed 05:04:20 PM 33.7408 -84.5783 133° Southeast 299 344 11,800 -655 Descending Atlanta Center
Wed 05:05:15 PM 33.7333 -84.4833 95° East 273 314 10,100 -1,934 Descending Atlanta TRACON
Wed 05:06:21 PM 33.7333 -84.3833 90° East 264 304 7,900 -1,810 Descending Atlanta TRACON
Wed 05:07:21 PM 33.7333 -84.3167 90° East 214 246 6,300 -1,650 Descending Atlanta TRACON
Wed 05:08:21 PM 33.7000 -84.2667 129° Southeast 199 229 4,600 -1,600 Descending Atlanta TRACON
Wed 05:09:21 PM 33.6667 -84.2833 203° Southwest 179 206 3,100 -1,211 Descending Atlanta TRACON
Wed 05:10:15 PM 33.6500 -84.3333 248° West 153 176 2,300 -800 Descending Atlanta TRACON
Wed 05:11:21 PM 33.6500 -84.3833 270° West 133 153 1,500 -727 Descending Atlanta TRACON
Wed 05:13:00 PM 33.6333 -84.4167 North  Level FlightAware Approximate
Wed 05:20:00 PM 33.6367 -84.4279 North  Level Estimated

Login

Don't have an account? Register now (free) for customized features, flight alerts, and more!